Time;durP1;ratioP1;P1;durP2;ratioP2;P2;SDS_P1;SDS_P2;PMS_P1;PMS_P2;Temp;Humidity;BMP_temperature;BMP_pressure;BME280_temperature;BME280_humidity;BME280_pressure;Samples;Min_cycle;Max_cycle;Signal;HPM_P1;HPM_P2
2022/01/30 00:01:47;;;;;;;12.37;9.67;;;2.70;76.80;;;;;;6298824;28;20526;-67
2022/01/30 00:04:50;;;;;;;12.80;9.20;;;2.70;78.10;;;;;;6296690;28;20544;-68
2022/01/30 00:07:53;;;;;;;11.60;9.73;;;2.80;77.60;;;;;;6299821;28;20468;-69
2022/01/30 00:11:05;;;;;;;12.60;8.90;;;2.90;77.40;;;;;;6300417;28;20478;-69
2022/01/30 00:14:12;;;;;;;10.83;8.63;;;2.90;77.40;;;;;;6299616;28;20824;-68
2022/01/30 00:17:20;;;;;;;13.73;10.30;;;2.90;77.30;;;;;;6299054;28;20480;-66
2022/01/30 00:20:26;;;;;;;10.77;8.60;;;3.00;78.30;;;;;;6286636;28;20944;-67
2022/01/30 00:23:31;;;;;;;13.50;9.63;;;3.00;77.50;;;;;;6274230;28;20478;-68
2022/01/30 00:26:39;;;;;;;13.50;9.13;;;2.90;77.70;;;;;;6274479;28;20480;-69
2022/01/30 00:29:42;;;;;;;16.83;10.27;;;2.90;78.00;;;;;;6276082;28;20470;-68
2022/01/30 00:32:46;;;;;;;11.80;9.60;;;2.90;78.20;;;;;;6275590;28;20477;-68
2022/01/30 00:36:08;;;;;;;15.83;11.03;;;2.90;78.30;;;;;;6275926;28;20483;-68
2022/01/30 00:39:11;;;;;;;14.33;9.93;;;2.90;78.40;;;;;;6275397;28;20470;-68
2022/01/30 00:42:15;;;;;;;13.40;9.93;;;2.90;78.80;;;;;;6275406;28;20963;-68
2022/01/30 00:45:19;;;;;;;14.47;10.57;;;3.00;78.80;;;;;;6275241;28;20477;-67
2022/01/30 00:48:22;;;;;;;17.57;11.43;;;3.10;78.10;;;;;;6274636;28;20489;-68
2022/01/30 00:51:25;;;;;;;14.80;9.87;;;3.00;78.00;;;;;;6274973;28;20469;-69
2022/01/30 00:54:28;;;;;;;13.47;9.50;;;3.00;78.70;;;;;;6275400;28;20474;-71
2022/01/30 00:57:33;;;;;;;11.73;10.47;;;3.10;79.80;;;;;;6298662;28;20480;-72
2022/01/30 01:00:37;;;;;;;14.83;9.73;;;3.00;80.30;;;;;;6301287;28;20486;-72
2022/01/30 01:03:40;;;;;;;12.53;10.03;;;3.00;80.20;;;;;;6299425;28;20556;-70
2022/01/30 01:06:48;;;;;;;13.73;10.20;;;3.10;83.60;;;;;;6301436;28;20472;-71
2022/01/30 01:10:00;;;;;;;12.50;9.00;;;3.20;81.50;;;;;;6302589;28;20476;-71
2022/01/30 01:23:27;;;;;;;12.63;9.70;;;3.20;78.80;;;;;;6302554;28;20531;-71
2022/01/30 01:26:31;;;;;;;12.40;9.97;;;3.20;79.20;;;;;;6302884;28;20480;-70
2022/01/30 01:29:35;;;;;;;10.43;8.53;;;3.10;79.10;;;;;;6302780;28;20534;-69
2022/01/30 01:32:39;;;;;;;12.63;9.10;;;3.10;79.20;;;;;;6302522;28;20477;-69
2022/01/30 01:35:42;;;;;;;14.87;9.30;;;3.20;79.20;;;;;;6302977;28;20481;-69
2022/01/30 01:38:46;;;;;;;10.40;8.13;;;2.80;80.20;;;;;;6302868;28;20492;-69
2022/01/30 01:41:49;;;;;;;13.97;8.77;;;2.90;80.40;;;;;;6302789;28;20468;-68
2022/01/30 01:44:56;;;;;;;8.80;7.57;;;3.00;80.30;;;;;;6302692;28;20499;-69
2022/01/30 01:48:02;;;;;;;11.10;9.00;;;3.10;80.10;;;;;;6302602;28;20480;-69
2022/01/30 01:51:13;;;;;;;10.30;8.10;;;3.10;79.80;;;;;;6301895;28;20480;-69
2022/01/30 01:54:17;;;;;;;10.27;7.90;;;3.20;79.60;;;;;;6302588;28;20480;-69
2022/01/30 01:57:20;;;;;;;9.00;6.77;;;3.10;79.10;;;;;;6302489;28;20465;-69
2022/01/30 02:00:25;;;;;;;11.60;8.87;;;3.00;79.80;;;;;;6302585;28;20480;-69
2022/01/30 02:03:29;;;;;;;8.03;6.43;;;3.10;79.90;;;;;;6301513;28;20551;-69
2022/01/30 02:06:32;;;;;;;14.37;5.90;;;3.00;79.20;;;;;;6302320;28;20475;-69
2022/01/30 02:09:35;;;;;;;7.03;6.33;;;3.00;79.20;;;;;;6301557;28;20973;-69
2022/01/30 02:12:47;;;;;;;8.20;7.30;;;3.00;79.20;;;;;;6301703;28;20485;-70
2022/01/30 02:25:58;;;;;;;9.67;8.37;;;3.10;79.90;;;;;;6301596;28;20530;-72
2022/01/30 02:29:01;;;;;;;8.43;7.17;;;3.20;79.90;;;;;;6301699;28;20922;-71
2022/01/30 02:32:05;;;;;;;11.37;7.20;;;3.20;79.90;;;;;;6300951;28;20862;-71
2022/01/30 02:35:09;;;;;;;9.90;8.60;;;3.20;80.00;;;;;;6301414;28;20535;-72
2022/01/30 02:38:15;;;;;;;13.80;8.37;;;3.20;80.50;;;;;;6301636;28;20484;-71
2022/01/30 02:41:18;;;;;;;9.60;7.93;;;3.20;80.90;;;;;;6301036;28;20476;-70
2022/01/30 02:44:25;;;;;;;9.97;8.73;;;3.20;80.80;;;;;;6296422;28;20538;-70
2022/01/30 02:47:41;;;;;;;9.80;8.80;;;3.20;81.30;;;;;;6300759;28;20486;-69
2022/01/30 02:50:55;;;;;;;10.40;7.70;;;3.20;81.50;;;;;;6301057;28;20483;-70
2022/01/30 02:54:05;;;;;;;12.13;8.80;;;3.20;81.30;;;;;;6301041;28;20480;-69
2022/01/30 02:57:08;;;;;;;10.87;9.40;;;3.10;81.30;;;;;;6301111;28;20531;-69
2022/01/30 03:00:12;;;;;;;10.20;7.97;;;3.10;81.80;;;;;;6300879;28;20481;-70
2022/01/30 03:03:15;;;;;;;13.87;9.70;;;3.20;81.60;;;;;;6300238;28;20477;-70
2022/01/30 03:06:18;;;;;;;11.37;8.73;;;2.90;82.50;;;;;;6300848;28;20480;-70
2022/01/30 03:09:23;;;;;;;11.43;9.43;;;3.00;82.60;;;;;;6300574;28;20477;-71
2022/01/30 03:12:26;;;;;;;11.80;9.80;;;3.00;81.70;;;;;;6300180;28;20488;-70
2022/01/30 03:15:29;;;;;;;12.03;9.70;;;2.90;82.30;;;;;;6300273;28;20958;-70
2022/01/30 03:18:32;;;;;;;14.70;10.27;;;2.80;82.30;;;;;;6300609;28;20481;-71
2022/01/30 03:21:35;;;;;;;14.17;9.77;;;2.90;82.10;;;;;;6299811;28;21023;-71
2022/01/30 03:24:40;;;;;;;14.83;10.50;;;2.80;82.70;;;;;;6300384;28;20943;-71
2022/01/30 03:27:44;;;;;;;13.10;9.40;;;2.90;81.80;;;;;;6300327;28;20488;-71
2022/01/30 03:30:48;;;;;;;14.67;10.70;;;2.80;81.90;;;;;;6300354;28;20957;-69
2022/01/30 03:33:51;;;;;;;12.17;10.57;;;2.90;82.00;;;;;;6299679;28;20484;-69
2022/01/30 03:36:55;;;;;;;11.67;10.47;;;2.60;82.70;;;;;;6299684;28;20511;-69
2022/01/30 03:39:59;;;;;;;14.73;10.00;;;2.50;82.90;;;;;;6300353;28;20465;-70
2022/01/30 03:43:02;;;;;;;12.47;10.50;;;2.70;83.00;;;;;;6299695;28;20796;-68
2022/01/30 03:46:06;;;;;;;14.50;10.13;;;2.70;82.40;;;;;;6290080;28;20494;-68
2022/01/30 03:49:09;;;;;;;11.77;9.60;;;2.90;82.60;;;;;;6299576;28;20479;-68
2022/01/30 03:52:12;;;;;;;14.47;10.17;;;3.00;81.90;;;;;;6300793;28;20468;-68
2022/01/30 03:55:17;;;;;;;12.97;9.10;;;2.90;80.90;;;;;;6300915;28;20522;-68
2022/01/30 03:58:20;;;;;;;12.70;9.30;;;2.90;80.70;;;;;;6300379;28;20464;-69
2022/01/30 04:01:23;;;;;;;13.03;9.90;;;2.90;80.70;;;;;;6299476;28;20469;-69
2022/01/30 04:04:27;;;;;;;11.53;10.00;;;2.90;79.90;;;;;;6299735;28;20477;-68
2022/01/30 04:07:32;;;;;;;16.67;11.07;;;2.70;80.50;;;;;;6299816;28;20477;-70
2022/01/30 04:10:38;;;;;;;14.57;9.40;;;2.70;80.90;;;;;;6299324;28;20802;-70
2022/01/30 04:13:42;;;;;;;16.47;10.30;;;2.80;87.70;;;;;;6298969;28;20473;-70
2022/01/30 04:16:45;;;;;;;16.23;10.90;;;2.50;82.20;;;;;;6298653;28;20469;-73
2022/01/30 04:19:50;;;;;;;14.00;10.40;;;2.50;82.60;;;;;;6298345;28;20480;-71
2022/01/30 04:22:53;;;;;;;14.30;10.23;;;2.30;82.00;;;;;;6298446;28;20472;-69
2022/01/30 04:25:57;;;;;;;17.10;11.90;;;2.20;82.70;;;;;;6298499;28;20484;-70
2022/01/30 04:29:01;;;;;;;11.43;8.90;;;2.20;82.20;;;;;;6297201;28;20848;-70
2022/01/30 04:32:05;;;;;;;16.30;9.80;;;2.30;82.50;;;;;;6297297;28;20469;-70
2022/01/30 04:35:13;;;;;;;13.13;10.47;;;2.20;82.20;;;;;;6303042;28;20469;-70
2022/01/30 04:38:21;;;;;;;13.27;10.10;;;2.00;83.10;;;;;;6304036;28;20469;-72
2022/01/30 04:41:51;;;;;;;17.90;10.03;;;2.00;83.60;;;;;;6304182;28;20515;-72
2022/01/30 04:52:19;;;;;;;19.43;13.67;;;1.90;85.20;;;;;;6256786;28;20542;-69
2022/01/30 04:56:09;;;;;;;14.20;11.47;;;1.70;86.40;;;;;;6303867;28;20532;-68
2022/01/30 04:59:18;;;;;;;14.50;11.70;;;1.60;87.70;;;;;;6304544;28;21007;-68
2022/01/30 05:02:44;;;;;;;14.30;11.93;;;1.50;87.90;;;;;;6302975;28;20568;-67
2022/01/30 05:05:58;;;;;;;18.57;12.70;;;1.30;89.50;;;;;;6303410;28;20480;-69
2022/01/30 05:09:02;;;;;;;19.17;13.87;;;1.30;90.10;;;;;;6303333;28;20546;-70
2022/01/30 05:12:06;;;;;;;17.10;13.43;;;1.20;90.50;;;;;;6303534;28;20477;-68
2022/01/30 05:15:11;;;;;;;16.40;12.33;;;1.30;90.40;;;;;;6303005;28;20468;-68
2022/01/30 05:18:18;;;;;;;15.50;11.97;;;1.40;90.20;;;;;;6304107;28;20535;-71
2022/01/30 05:21:22;;;;;;;17.80;12.17;;;1.40;90.20;;;;;;6303452;28;20546;-71
2022/01/30 05:24:26;;;;;;;15.80;12.60;;;1.50;90.10;;;;;;6303296;28;20801;-72
2022/01/30 05:27:29;;;;;;;17.27;12.20;;;1.60;90.10;;;;;;6303663;28;20495;-71
2022/01/30 05:30:35;;;;;;;15.20;12.13;;;1.60;90.00;;;;;;6302887;28;20492;-71
2022/01/30 05:33:38;;;;;;;12.53;10.77;;;1.60;90.20;;;;;;6303157;28;20961;-71
2022/01/30 05:36:44;;;;;;;19.90;13.20;;;1.70;90.10;;;;;;6303005;28;20477;-71
2022/01/30 05:39:47;;;;;;;15.70;12.50;;;1.80;90.10;;;;;;6302845;28;20469;-71
2022/01/30 05:42:52;;;;;;;14.60;10.87;;;1.90;90.00;;;;;;6302608;28;20505;-71
2022/01/30 05:46:07;;;;;;;22.83;12.73;;;2.00;89.90;;;;;;6302152;28;20550;-71
2022/01/30 05:49:13;;;;;;;13.20;11.17;;;2.00;89.50;;;;;;6302521;28;20473;-70
2022/01/30 05:52:17;;;;;;;15.70;11.30;;;2.10;89.80;;;;;;6302518;28;20781;-69
2022/01/30 05:55:20;;;;;;;17.97;12.00;;;2.00;90.00;;;;;;6302495;28;20461;-70
2022/01/30 05:58:23;;;;;;;21.73;12.10;;;2.10;90.10;;;;;;6302213;28;20768;-70
2022/01/30 06:01:28;;;;;;;12.00;10.37;;;2.20;90.00;;;;;;6302170;28;20484;-69
2022/01/30 06:04:31;;;;;;;14.50;10.47;;;2.20;89.60;;;;;;6302413;28;20458;-69
2022/01/30 06:07:35;;;;;;;12.27;11.00;;;2.30;89.70;;;;;;6301925;28;20480;-70
2022/01/30 06:10:38;;;;;;;13.07;10.20;;;2.30;90.00;;;;;;6302657;28;20461;-70
2022/01/30 06:13:41;;;;;;;13.17;9.77;;;2.30;89.40;;;;;;6302189;28;20477;-69
2022/01/30 06:16:47;;;;;;;10.10;8.13;;;2.20;89.90;;;;;;6301539;28;20473;-70
2022/01/30 06:19:50;;;;;;;11.17;10.00;;;2.40;90.60;;;;;;6301736;28;20465;-70
2022/01/30 06:22:54;;;;;;;14.77;7.80;;;2.70;89.70;;;;;;6301575;28;20499;-70
2022/01/30 06:25:57;;;;;;;10.63;8.77;;;2.70;90.00;;;;;;6301895;28;20500;-70
2022/01/30 06:29:00;;;;;;;9.77;8.57;;;2.90;90.40;;;;;;6301239;28;20526;-70
2022/01/30 06:32:06;;;;;;;11.53;9.70;;;3.00;90.20;;;;;;6301130;28;20473;-71
2022/01/30 06:35:10;;;;;;;14.40;9.23;;;3.10;88.90;;;;;;6301786;28;20487;-67
2022/01/30 06:38:13;;;;;;;10.30;7.40;;;2.90;88.70;;;;;;6301350;28;20762;-68
2022/01/30 06:41:16;;;;;;;13.77;9.70;;;3.00;91.10;;;;;;6301343;28;20480;-68
2022/01/30 06:44:19;;;;;;;6.63;5.50;;;3.20;90.80;;;;;;6303591;28;20476;-71
2022/01/30 06:47:24;;;;;;;2.20;2.00;;;3.40;92.20;;;;;;6300992;28;20465;-68
2022/01/30 06:50:27;;;;;;;1.13;0.80;;;3.90;94.70;;;;;;6300994;28;20959;-68
2022/01/30 06:53:30;;;;;;;0.70;0.70;;;4.50;95.80;;;;;;6300521;28;20473;-68
2022/01/30 06:56:33;;;;;;;0.70;0.70;;;5.30;94.80;;;;;;6300465;28;20477;-68
2022/01/30 06:59:37;;;;;;;0.53;0.53;;;6.00;93.30;;;;;;6300596;28;20512;-69
2022/01/30 07:02:41;;;;;;;0.50;0.50;;;6.60;91.90;;;;;;6300330;28;20473;-69
2022/01/30 07:05:45;;;;;;;0.50;0.50;;;7.10;90.90;;;;;;6300520;28;20492;-69
2022/01/30 07:08:48;;;;;;;0.67;0.67;;;7.40;90.10;;;;;;6300966;28;20477;-69
2022/01/30 07:11:52;;;;;;;0.60;0.60;;;7.60;89.30;;;;;;6302886;28;20470;-70
2022/01/30 07:14:55;;;;;;;1.07;0.50;;;7.80;88.00;;;;;;6300512;28;20958;-70
2022/01/30 07:17:59;;;;;;;0.47;0.47;;;8.00;86.40;;;;;;6300199;28;20469;-70
2022/01/30 07:21:04;;;;;;;0.50;0.50;;;8.20;84.70;;;;;;6300277;28;20472;-68
2022/01/30 07:24:08;;;;;;;1.60;0.60;;;8.40;83.20;;;;;;6300287;28;20469;-68
2022/01/30 07:27:11;;;;;;;0.60;0.60;;;8.50;82.00;;;;;;6302159;28;20875;-68
2022/01/30 07:30:14;;;;;;;0.60;0.60;;;8.50;81.10;;;;;;6300184;28;20554;-68
2022/01/30 07:33:18;;;;;;;0.50;0.50;;;8.70;81.10;;;;;;6299690;28;20469;-69
2022/01/30 07:36:22;;;;;;;0.60;0.43;;;8.80;79.40;;;;;;6300527;28;20837;-69
2022/01/30 07:39:28;;;;;;;0.60;0.50;;;8.90;78.00;;;;;;6300259;28;20477;-69
2022/01/30 07:42:31;;;;;;;0.60;0.60;;;9.00;77.50;;;;;;6300207;28;20477;-69
2022/01/30 07:45:34;;;;;;;0.50;0.50;;;9.10;76.80;;;;;;6299576;28;20473;-70
2022/01/30 07:48:39;;;;;;;1.07;0.60;;;9.10;75.90;;;;;;6300092;28;20531;-71
2022/01/30 07:51:42;;;;;;;0.50;0.50;;;9.20;75.10;;;;;;6300154;28;20477;-71
2022/01/30 07:54:45;;;;;;;0.70;0.60;;;9.40;74.90;;;;;;6299699;28;20484;-71
2022/01/30 07:57:48;;;;;;;0.50;0.50;;;9.40;72.80;;;;;;6299731;28;20487;-69
2022/01/30 08:00:51;;;;;;;1.33;0.60;;;9.50;71.80;;;;;;6295360;28;21073;-68
2022/01/30 08:03:56;;;;;;;0.77;0.50;;;9.60;70.50;;;;;;6299643;28;20574;-68
2022/01/30 08:06:59;;;;;;;0.50;0.50;;;9.60;70.60;;;;;;6299617;28;20469;-68
2022/01/30 08:10:03;;;;;;;0.70;0.60;;;9.70;68.90;;;;;;6309778;28;20468;-68
2022/01/30 08:13:07;;;;;;;0.60;0.57;;;9.80;67.00;;;;;;6304819;28;20904;-68
2022/01/30 08:16:10;;;;;;;0.70;0.60;;;9.90;66.10;;;;;;6305072;28;20452;-71
2022/01/30 08:19:15;;;;;;;0.60;0.60;;;10.10;63.80;;;;;;6304607;28;20602;-71
2022/01/30 08:22:19;;;;;;;0.80;0.50;;;10.10;61.80;;;;;;6304723;28;20457;-68
2022/01/30 08:25:24;;;;;;;0.93;0.50;;;10.30;60.90;;;;;;6304206;28;20486;-68
2022/01/30 08:28:27;;;;;;;3.63;0.80;;;10.30;60.00;;;;;;6304253;28;20500;-70
2022/01/30 08:31:31;;;;;;;0.80;0.80;;;10.50;58.90;;;;;;6304445;28;20476;-71
2022/01/30 08:34:35;;;;;;;1.00;0.60;;;10.60;58.00;;;;;;6304588;28;20461;-71
2022/01/30 08:37:38;;;;;;;0.50;0.50;;;10.70;58.70;;;;;;6304301;28;20472;-71
2022/01/30 08:40:42;;;;;;;0.73;0.50;;;10.70;58.40;;;;;;6304329;28;20785;-71
2022/01/30 08:43:45;;;;;;;0.93;0.70;;;10.80;58.20;;;;;;6303842;28;20846;-71
2022/01/30 08:46:49;;;;;;;1.10;0.50;;;10.80;58.90;;;;;;6303852;28;20465;-71
2022/01/30 08:49:53;;;;;;;2.90;0.90;;;10.80;58.50;;;;;;6304041;28;20469;-71
2022/01/30 08:52:56;;;;;;;1.00;0.50;;;10.90;58.80;;;;;;6304242;28;20533;-70
2022/01/30 08:56:00;;;;;;;1.03;0.60;;;10.90;58.30;;;;;;6304319;28;20469;-69
2022/01/30 08:59:03;;;;;;;0.50;0.40;;;10.90;58.30;;;;;;6302461;28;20479;-69
2022/01/30 09:02:06;;;;;;;0.97;0.50;;;10.90;58.10;;;;;;6297926;28;20830;-68
2022/01/30 09:05:12;;;;;;;1.97;0.57;;;11.00;57.90;;;;;;6300539;28;20872;-70
2022/01/30 09:08:15;;;;;;;2.40;0.53;;;11.00;56.90;;;;;;6300638;28;20487;-70
2022/01/30 09:11:18;;;;;;;1.90;0.60;;;11.10;56.50;;;;;;6300731;28;20473;-70
2022/01/30 09:14:23;;;;;;;1.80;0.70;;;11.10;55.30;;;;;;6294555;28;20491;-71
2022/01/30 09:17:28;;;;;;;1.90;0.73;;;11.10;55.30;;;;;;6301142;28;21024;-70
2022/01/30 09:20:33;;;;;;;3.30;0.60;;;11.20;55.40;;;;;;6301848;28;20571;-69
2022/01/30 09:23:36;;;;;;;1.53;0.50;;;11.30;55.00;;;;;;6303137;28;20480;-70
2022/01/30 09:26:39;;;;;;;2.63;0.43;;;11.40;54.00;;;;;;6302380;28;21045;-71
2022/01/30 09:29:45;;;;;;;0.97;0.40;;;11.40;53.20;;;;;;6302647;28;20461;-71
2022/01/30 09:32:48;;;;;;;0.60;0.47;;;11.40;52.20;;;;;;6302255;28;20469;-70
2022/01/30 09:35:53;;;;;;;2.00;0.70;;;11.50;53.40;;;;;;6303711;28;20465;-70
2022/01/30 09:38:56;;;;;;;0.60;0.43;;;11.50;53.20;;;;;;6299387;28;20496;-70
2022/01/30 09:42:00;;;;;;;3.80;0.60;;;11.60;52.30;;;;;;6298839;28;20472;-70
2022/01/30 09:45:05;;;;;;;0.50;0.50;;;11.70;51.30;;;;;;6301804;28;20823;-70
2022/01/30 09:48:09;;;;;;;2.53;0.50;;;11.80;51.00;;;;;;6299234;28;20466;-71
2022/01/30 09:51:13;;;;;;;0.60;0.40;;;11.80;49.60;;;;;;6300768;28;20473;-71
2022/01/30 09:54:16;;;;;;;0.70;0.60;;;12.00;49.30;;;;;;6297616;28;20465;-71
2022/01/30 09:57:19;;;;;;;0.80;0.53;;;12.10;49.10;;;;;;6300060;28;20465;-71
2022/01/30 10:00:23;;;;;;;1.23;0.50;;;12.30;47.70;;;;;;6300809;28;20472;-70
2022/01/30 10:03:27;;;;;;;3.03;0.60;;;12.40;47.50;;;;;;6296055;28;20526;-71
2022/01/30 10:06:50;;;;;;;2.20;0.50;;;12.70;47.20;;;;;;6282373;28;20562;-71
2022/01/30 10:10:08;;;;;;;1.17;0.40;;;13.60;47.10;;;;;;6294505;28;20465;-71
2022/01/30 10:13:14;;;;;;;0.50;0.40;;;16.50;43.10;;;;;;6300096;28;20812;-70
2022/01/30 10:16:18;;;;;;;4.10;0.60;;;19.90;37.40;;;;;;6300898;28;20433;-72
2022/01/30 10:19:23;;;;;;;0.90;0.30;;;23.20;30.90;;;;;;6308048;28;20246;-72
2022/01/30 10:22:28;;;;;;;9.13;0.73;;;25.30;28.00;;;;;;6304965;28;20661;-72
2022/01/30 10:25:34;;;;;;;3.33;0.60;;;26.30;25.70;;;;;;6302058;28;20225;-72
2022/01/30 10:28:38;;;;;;;3.40;0.47;;;27.30;24.30;;;;;;6302145;28;20226;-71
2022/01/30 10:32:00;;;;;;;2.30;0.50;;;27.50;23.60;;;;;;6306482;28;20545;-71
2022/01/30 10:35:05;;;;;;;2.40;0.40;;;27.60;23.30;;;;;;6301528;28;20284;-69
2022/01/30 10:38:20;;;;;;;2.40;0.40;;;28.40;22.90;;;;;;6295483;28;20232;-70
2022/01/30 10:41:35;;;;;;;3.60;0.60;;;28.80;21.70;;;;;;6298346;28;20242;-68
2022/01/30 10:44:47;;;;;;;0.60;0.25;;;29.30;21.70;;;;;;6299300;28;20240;-72
2022/01/30 10:47:50;;;;;;;1.25;0.40;;;30.70;20.60;;;;;;6300891;28;20243;-71
2022/01/30 10:50:55;;;;;;;4.10;0.30;;;30.10;20.60;;;;;;6300445;28;20224;-66
2022/01/30 10:54:05;;;;;;;1.30;0.40;;;27.70;21.50;;;;;;6300901;28;20257;-66
2022/01/30 10:57:10;;;;;;;1.10;0.50;;;23.80;24.00;;;;;;6303177;28;20242;-66
2022/01/30 11:00:14;;;;;;;3.33;1.33;;;21.50;25.90;;;;;;6304790;28;20237;-66
2022/01/30 11:03:38;;;;;;;6.77;0.73;;;20.80;27.10;;;;;;6309671;28;20260;-66
2022/01/30 11:06:41;;;;;;;2.10;0.40;;;21.80;26.90;;;;;;6305602;28;20557;-67
2022/01/30 11:09:58;;;;;;;1.27;0.40;;;24.10;25.70;;;;;;6297816;28;20543;-70
2022/01/30 11:13:08;;;;;;;2.20;0.73;;;25.70;24.20;;;;;;6300192;28;20256;-67
2022/01/30 11:19:37;;;;;;;1.17;0.57;;;28.80;21.50;;;;;;6300152;28;20239;-68
2022/01/30 11:22:42;;;;;;;0.90;0.37;;;30.10;20.60;;;;;;6300231;28;20676;-65
2022/01/30 11:25:47;;;;;;;0.73;0.30;;;30.40;19.90;;;;;;6300098;28;20244;-66
2022/01/30 11:28:51;;;;;;;0.68;0.20;;;31.50;19.60;;;;;;6299719;28;20370;-68
2022/01/30 11:31:55;;;;;;;1.40;0.75;;;31.80;18.90;;;;;;6299833;28;20240;-68
2022/01/30 11:34:59;;;;;;;1.15;0.20;;;31.70;19.00;;;;;;6298755;28;20231;-68
2022/01/30 11:38:04;;;;;;;3.45;0.80;;;32.80;18.00;;;;;;6299950;28;20246;-69
2022/01/30 11:41:13;;;;;;;3.38;0.43;;;32.80;18.40;;;;;;6299499;28;20561;-68
2022/01/30 11:44:27;;;;;;;1.88;0.57;;;32.90;17.10;;;;;;6300126;28;20233;-68
2022/01/30 11:47:43;;;;;;;0.98;0.43;;;33.00;16.40;;;;;;6300339;28;20577;-68
2022/01/30 11:50:46;;;;;;;1.20;0.30;;;33.70;17.20;;;;;;6299411;28;20235;-69
2022/01/30 11:53:49;;;;;;;1.50;0.40;;;33.40;17.10;;;;;;6297869;28;20234;-68
2022/01/30 11:56:54;;;;;;;0.60;0.30;;;33.20;17.10;;;;;;6298368;28;20281;-69
2022/01/30 12:00:00;;;;;;;2.60;0.38;;;33.60;17.20;;;;;;6297685;28;20227;-68
2022/01/30 12:03:27;;;;;;;0.95;0.35;;;32.50;17.60;;;;;;6297630;28;20227;-67
2022/01/30 12:06:34;;;;;;;0.60;0.30;;;32.70;17.50;;;;;;6299401;28;20230;-67
2022/01/30 12:09:37;;;;;;;0.70;0.30;;;32.50;17.70;;;;;;6299447;28;20230;-68
2022/01/30 12:12:49;;;;;;;0.80;0.30;;;32.50;17.60;;;;;;6299024;28;20555;-68
2022/01/30 12:15:52;;;;;;;0.63;0.40;;;32.30;18.00;;;;;;6294721;28;20249;-68
2022/01/30 12:18:55;;;;;;;0.98;0.30;;;32.30;17.90;;;;;;6298997;28;20229;-68
2022/01/30 12:21:58;;;;;;;3.60;0.60;;;32.20;18.30;;;;;;6299318;28;20229;-68
2022/01/30 12:25:35;;;;;;;1.35;0.50;;;31.90;17.30;;;;;;6298676;28;20236;-68
2022/01/30 12:28:45;;;;;;;1.55;0.55;;;31.30;18.20;;;;;;6299620;28;20225;-69
2022/01/30 12:31:48;;;;;;;3.30;0.38;;;31.50;18.20;;;;;;6300085;28;20229;-68
2022/01/30 12:35:03;;;;;;;1.03;0.27;;;30.30;19.10;;;;;;6308129;28;20231;-69
2022/01/30 12:38:06;;;;;;;4.00;0.33;;;29.20;20.20;;;;;;6299080;28;20248;-68
2022/01/30 12:41:20;;;;;;;0.60;0.20;;;29.60;20.20;;;;;;6299070;28;20227;-69
2022/01/30 12:44:31;;;;;;;1.30;0.47;;;28.40;20.30;;;;;;6299483;28;20227;-68
2022/01/30 12:47:46;;;;;;;7.43;0.70;;;28.00;21.40;;;;;;6299140;28;20233;-68
2022/01/30 12:50:54;;;;;;;1.00;0.50;;;27.20;21.20;;;;;;6299238;28;20232;-69
2022/01/30 12:53:58;;;;;;;1.80;0.40;;;27.30;21.70;;;;;;6298741;28;20235;-70
2022/01/30 12:57:01;;;;;;;0.83;0.23;;;28.60;20.90;;;;;;6303315;28;20280;-70
2022/01/30 13:00:09;;;;;;;0.87;0.30;;;30.40;19.50;;;;;;6303823;28;20239;-67
2022/01/30 13:03:19;;;;;;;0.83;0.50;;;30.50;18.90;;;;;;6303162;28;20245;-70
2022/01/30 13:06:32;;;;;;;0.90;0.50;;;30.50;18.60;;;;;;6303170;28;20763;-68
2022/01/30 13:09:35;;;;;;;0.97;0.50;;;30.80;19.80;;;;;;6303263;28;20232;-69
2022/01/30 13:12:38;;;;;;;0.70;0.50;;;30.00;18.10;;;;;;6303205;28;20240;-66
2022/01/30 13:15:57;;;;;;;1.10;0.40;;;30.30;18.80;;;;;;6302580;28;20231;-69
2022/01/30 13:19:01;;;;;;;1.30;0.43;;;31.10;17.90;;;;;;6269662;28;20233;-69
2022/01/30 13:22:07;;;;;;;0.90;0.30;;;30.00;18.60;;;;;;6278218;28;20303;-69
2022/01/30 13:25:12;;;;;;;1.13;0.50;;;29.20;19.30;;;;;;6278942;28;20188;-68
2022/01/30 13:28:21;;;;;;;1.37;0.60;;;29.90;19.30;;;;;;6278218;28;20223;-68
2022/01/30 13:31:26;;;;;;;0.90;0.40;;;30.50;18.70;;;;;;6277761;28;20235;-68
2022/01/30 13:34:30;;;;;;;0.80;0.33;;;30.70;18.60;;;;;;6277787;28;20267;-68
2022/01/30 13:37:37;;;;;;;2.40;1.10;;;30.20;18.30;;;;;;6277737;28;20229;-69
2022/01/30 13:40:55;;;;;;;1.67;0.40;;;29.80;18.50;;;;;;6277276;28;20675;-70
2022/01/30 13:43:58;;;;;;;4.10;0.50;;;30.00;18.50;;;;;;6277597;28;20242;-68
2022/01/30 13:47:03;;;;;;;0.67;0.30;;;30.20;18.50;;;;;;6277351;28;20578;-69
2022/01/30 13:50:15;;;;;;;0.70;0.40;;;30.00;18.40;;;;;;6278554;28;20606;-68
2022/01/30 13:53:25;;;;;;;3.37;0.43;;;30.30;18.20;;;;;;6302085;28;20232;-68
2022/01/30 13:56:28;;;;;;;1.70;0.70;;;30.60;18.10;;;;;;6301732;28;20231;-68
2022/01/30 13:59:32;;;;;;;1.40;0.70;;;30.80;18.00;;;;;;6301910;28;20574;-68
2022/01/30 14:02:52;;;;;;;1.00;0.40;;;29.50;17.60;;;;;;6301735;28;20231;-70
2022/01/30 14:05:56;;;;;;;2.33;0.77;;;28.50;17.90;;;;;;6301415;28;20215;-67
2022/01/30 14:09:03;;;;;;;1.40;0.67;;;27.00;18.20;;;;;;6299417;28;20214;-67
2022/01/30 14:12:09;;;;;;;2.40;0.70;;;26.30;18.70;;;;;;6301542;28;20680;-67
2022/01/30 14:15:20;;;;;;;0.70;0.50;;;25.10;19.40;;;;;;6301824;28;20248;-68
2022/01/30 14:18:27;;;;;;;2.00;0.57;;;24.00;20.60;;;;;;6301583;28;20227;-67
2022/01/30 14:21:33;;;;;;;1.37;0.73;;;23.50;20.90;;;;;;6291596;28;20282;-67
2022/01/30 14:24:36;;;;;;;2.07;0.80;;;22.60;21.80;;;;;;6300615;28;20223;-67
2022/01/30 14:27:40;;;;;;;1.70;0.87;;;21.70;22.30;;;;;;6276202;28;20227;-67
2022/01/30 14:30:44;;;;;;;1.90;1.17;;;21.00;22.90;;;;;;6276051;28;20516;-68
2022/01/30 14:33:48;;;;;;;0.90;0.60;;;19.90;23.60;;;;;;6275515;28;20616;-68
2022/01/30 14:36:53;;;;;;;2.13;0.50;;;18.50;25.00;;;;;;6276077;28;20706;-68
2022/01/30 14:39:58;;;;;;;1.13;0.57;;;17.70;26.10;;;;;;6276026;28;20228;-67
2022/01/30 14:43:01;;;;;;;0.90;0.80;;;17.10;26.90;;;;;;6275617;28;20855;-67
2022/01/30 14:46:04;;;;;;;1.30;0.70;;;16.50;28.90;;;;;;6276131;28;20515;-67
2022/01/30 14:49:09;;;;;;;3.07;1.30;;;15.90;29.60;;;;;;6276979;28;20525;-67
2022/01/30 14:52:15;;;;;;;3.17;1.50;;;15.40;31.00;;;;;;6276728;28;20461;-67
2022/01/30 14:55:18;;;;;;;3.40;1.00;;;14.90;31.70;;;;;;6276026;28;20510;-67
2022/01/30 14:58:22;;;;;;;2.33;0.70;;;14.50;32.90;;;;;;6301013;28;20433;-67
2022/01/30 15:01:26;;;;;;;1.20;0.83;;;14.30;33.00;;;;;;6298856;28;20480;-67
2022/01/30 15:04:31;;;;;;;1.60;1.17;;;14.00;33.70;;;;;;6299374;28;20465;-67
2022/01/30 15:07:34;;;;;;;1.10;0.90;;;13.70;34.10;;;;;;6300115;28;20477;-67
2022/01/30 15:10:37;;;;;;;2.87;0.97;;;13.50;35.00;;;;;;6299290;28;20481;-67
2022/01/30 15:13:40;;;;;;;1.07;0.80;;;13.10;35.40;;;;;;6298903;28;20469;-67
2022/01/30 15:16:46;;;;;;;1.00;0.90;;;12.90;35.90;;;;;;6299634;28;20526;-67
2022/01/30 15:19:50;;;;;;;5.70;0.97;;;12.70;36.30;;;;;;6295855;28;20993;-67
2022/01/30 15:22:53;;;;;;;1.13;0.90;;;12.30;36.60;;;;;;6287114;28;20485;-67
2022/01/30 15:25:57;;;;;;;1.70;0.83;;;12.10;37.10;;;;;;6299384;28;20469;-67
2022/01/30 15:29:00;;;;;;;1.23;1.13;;;12.00;37.40;;;;;;6299914;28;20538;-66
2022/01/30 15:32:03;;;;;;;1.30;1.20;;;11.80;39.10;;;;;;6299784;28;20534;-66
2022/01/30 15:35:09;;;;;;;1.50;0.93;;;11.70;37.70;;;;;;6300214;28;20950;-66
2022/01/30 15:38:12;;;;;;;2.40;1.40;;;11.60;37.70;;;;;;6299797;28;20538;-66
2022/01/30 15:41:16;;;;;;;2.20;1.57;;;11.50;37.80;;;;;;6298670;28;20480;-67
2022/01/30 15:44:19;;;;;;;1.90;0.90;;;11.40;37.80;;;;;;6299467;28;20473;-67
2022/01/30 15:50:45;;;;;;;3.23;1.53;;;11.30;37.70;;;;;;6299129;28;20473;-67
2022/01/30 15:53:48;;;;;;;5.10;1.60;;;11.20;37.40;;;;;;6298251;28;20538;-67
2022/01/30 15:56:51;;;;;;;3.13;1.37;;;11.10;37.60;;;;;;6297877;28;20488;-67
2022/01/30 15:59:54;;;;;;;4.17;1.50;;;11.10;37.80;;;;;;6297987;28;20959;-67
2022/01/30 16:02:58;;;;;;;3.13;2.17;;;11.00;37.70;;;;;;6297613;28;20496;-68
2022/01/30 16:06:02;;;;;;;3.50;1.70;;;10.90;37.60;;;;;;6298016;28;20879;-67
2022/01/30 16:09:11;;;;;;;1.80;1.10;;;10.70;37.50;;;;;;6298371;28;20480;-67
2022/01/30 16:12:25;;;;;;;1.40;1.20;;;10.70;37.50;;;;;;6299284;28;20480;-67
2022/01/30 16:15:37;;;;;;;3.17;1.40;;;10.60;37.40;;;;;;6299204;28;20861;-67
2022/01/30 16:18:40;;;;;;;2.20;1.10;;;10.40;37.90;;;;;;6299539;28;20982;-67
2022/01/30 16:21:44;;;;;;;1.97;1.30;;;10.20;38.10;;;;;;6299627;28;20954;-66
2022/01/30 16:24:48;;;;;;;1.37;1.20;;;10.10;38.40;;;;;;6298784;28;20469;-66
2022/01/30 16:27:51;;;;;;;3.53;1.60;;;10.10;38.50;;;;;;6290106;28;20488;-66
2022/01/30 16:30:54;;;;;;;3.70;2.57;;;10.10;38.70;;;;;;6303485;28;20473;-66
2022/01/30 16:33:58;;;;;;;2.00;1.80;;;10.00;39.20;;;;;;6303600;28;20485;-67
2022/01/30 16:37:03;;;;;;;3.17;1.70;;;10.00;39.70;;;;;;6303511;28;20958;-67
2022/01/30 16:40:07;;;;;;;2.13;1.73;;;9.90;40.50;;;;;;6303361;28;20933;-67